sensor_id;sensor_type;location;lat;lon;timestamp;P1;durP1;ratioP1;P2;durP2;ratioP2
12334;SDS011;6233;51.560;9.986;2023-03-20T00:01:46;8.97;;;7.97;;
12334;SDS011;6233;51.560;9.986;2023-03-20T00:04:49;9.53;;;8.23;;
12334;SDS011;6233;51.560;9.986;2023-03-20T00:07:52;8.47;;;7.67;;
12334;SDS011;6233;51.560;9.986;2023-03-20T00:10:54;7.57;;;6.37;;
12334;SDS011;6233;51.560;9.986;2023-03-20T00:14:00;8.93;;;7.53;;
12334;SDS011;6233;51.560;9.986;2023-03-20T00:17:07;8.47;;;7.00;;
12334;SDS011;6233;51.560;9.986;2023-03-20T00:20:14;8.23;;;7.43;;
12334;SDS011;6233;51.560;9.986;2023-03-20T00:23:17;8.70;;;7.30;;
12334;SDS011;6233;51.560;9.986;2023-03-20T00:26:18;8.90;;;7.07;;
12334;SDS011;6233;51.560;9.986;2023-03-20T00:29:25;8.53;;;6.97;;
12334;SDS011;6233;51.560;9.986;2023-03-20T00:32:30;8.13;;;7.13;;
12334;SDS011;6233;51.560;9.986;2023-03-20T00:35:32;8.23;;;7.13;;
12334;SDS011;6233;51.560;9.986;2023-03-20T00:38:35;8.27;;;6.67;;
12334;SDS011;6233;51.560;9.986;2023-03-20T00:44:47;7.63;;;6.67;;
12334;SDS011;6233;51.560;9.986;2023-03-20T00:47:54;7.90;;;6.67;;
12334;SDS011;6233;51.560;9.986;2023-03-20T00:50:57;7.63;;;6.00;;
12334;SDS011;6233;51.560;9.986;2023-03-20T00:53:59;7.77;;;6.13;;
12334;SDS011;6233;51.560;9.986;2023-03-20T00:57:02;8.83;;;6.73;;
12334;SDS011;6233;51.560;9.986;2023-03-20T01:00:18;7.53;;;6.30;;
12334;SDS011;6233;51.560;9.986;2023-03-20T01:03:22;7.07;;;5.70;;
12334;SDS011;6233;51.560;9.986;2023-03-20T01:06:25;6.63;;;5.80;;
12334;SDS011;6233;51.560;9.986;2023-03-20T01:09:29;7.00;;;5.63;;
12334;SDS011;6233;51.560;9.986;2023-03-20T01:12:30;7.40;;;6.60;;
12334;SDS011;6233;51.560;9.986;2023-03-20T01:15:32;6.33;;;5.60;;
12334;SDS011;6233;51.560;9.986;2023-03-20T01:18:35;7.17;;;6.40;;
12334;SDS011;6233;51.560;9.986;2023-03-20T01:21:37;5.90;;;5.30;;
12334;SDS011;6233;51.560;9.986;2023-03-20T01:24:39;7.73;;;6.40;;
12334;SDS011;6233;51.560;9.986;2023-03-20T01:27:42;8.53;;;7.07;;
12334;SDS011;6233;51.560;9.986;2023-03-20T01:30:47;8.13;;;6.07;;
12334;SDS011;6233;51.560;9.986;2023-03-20T01:33:49;6.10;;;5.50;;
12334;SDS011;6233;51.560;9.986;2023-03-20T01:36:54;6.63;;;5.93;;
12334;SDS011;6233;51.560;9.986;2023-03-20T01:39:58;7.30;;;6.20;;
12334;SDS011;6233;51.560;9.986;2023-03-20T01:43:01;7.47;;;6.17;;
12334;SDS011;6233;51.560;9.986;2023-03-20T01:46:13;7.00;;;6.30;;
12334;SDS011;6233;51.560;9.986;2023-03-20T01:52:21;7.03;;;6.27;;
12334;SDS011;6233;51.560;9.986;2023-03-20T01:55:23;6.57;;;5.53;;
12334;SDS011;6233;51.560;9.986;2023-03-20T01:58:33;6.10;;;5.40;;
12334;SDS011;6233;51.560;9.986;2023-03-20T02:01:37;8.03;;;5.80;;
12334;SDS011;6233;51.560;9.986;2023-03-20T02:04:41;8.30;;;6.53;;
12334;SDS011;6233;51.560;9.986;2023-03-20T02:07:48;7.93;;;6.90;;
12334;SDS011;6233;51.560;9.986;2023-03-20T02:10:57;7.80;;;6.63;;
12334;SDS011;6233;51.560;9.986;2023-03-20T02:14:01;8.20;;;6.43;;
12334;SDS011;6233;51.560;9.986;2023-03-20T02:17:04;7.87;;;6.23;;
12334;SDS011;6233;51.560;9.986;2023-03-20T02:20:26;8.03;;;6.70;;
12334;SDS011;6233;51.560;9.986;2023-03-20T02:40:46;8.77;;;7.47;;
12334;SDS011;6233;51.560;9.986;2023-03-20T02:44:00;9.53;;;8.27;;
12334;SDS011;6233;51.560;9.986;2023-03-20T02:47:10;9.30;;;8.20;;
12334;SDS011;6233;51.560;9.986;2023-03-20T02:53:30;10.07;;;7.97;;
12334;SDS011;6233;51.560;9.986;2023-03-20T02:57:00;9.57;;;8.07;;
12334;SDS011;6233;51.560;9.986;2023-03-20T03:03:36;10.20;;;8.20;;
12334;SDS011;6233;51.560;9.986;2023-03-20T03:06:42;10.50;;;8.63;;
12334;SDS011;6233;51.560;9.986;2023-03-20T03:09:51;11.90;;;9.13;;
12334;SDS011;6233;51.560;9.986;2023-03-20T03:12:56;11.73;;;9.77;;
12334;SDS011;6233;51.560;9.986;2023-03-20T03:16:04;14.40;;;10.90;;
12334;SDS011;6233;51.560;9.986;2023-03-20T03:19:20;18.53;;;14.27;;
12334;SDS011;6233;51.560;9.986;2023-03-20T03:22:25;21.57;;;15.20;;
12334;SDS011;6233;51.560;9.986;2023-03-20T03:25:28;23.70;;;16.20;;
12334;SDS011;6233;51.560;9.986;2023-03-20T03:28:44;23.37;;;17.13;;
12334;SDS011;6233;51.560;9.986;2023-03-20T03:31:50;31.10;;;19.13;;
12334;SDS011;6233;51.560;9.986;2023-03-20T03:34:52;29.77;;;18.93;;
12334;SDS011;6233;51.560;9.986;2023-03-20T03:37:59;29.47;;;18.63;;
12334;SDS011;6233;51.560;9.986;2023-03-20T03:41:23;27.37;;;17.97;;
12334;SDS011;6233;51.560;9.986;2023-03-20T03:48:04;29.30;;;19.10;;
12334;SDS011;6233;51.560;9.986;2023-03-20T03:51:46;29.67;;;18.00;;
12334;SDS011;6233;51.560;9.986;2023-03-20T03:54:52;30.13;;;18.10;;
12334;SDS011;6233;51.560;9.986;2023-03-20T03:58:18;31.47;;;18.97;;
12334;SDS011;6233;51.560;9.986;2023-03-20T04:01:24;29.57;;;19.77;;
12334;SDS011;6233;51.560;9.986;2023-03-20T04:04:28;30.13;;;19.50;;
12334;SDS011;6233;51.560;9.986;2023-03-20T04:07:31;29.73;;;19.17;;
12334;SDS011;6233;51.560;9.986;2023-03-20T04:10:33;29.13;;;18.80;;
12334;SDS011;6233;51.560;9.986;2023-03-20T04:13:35;29.10;;;19.00;;
12334;SDS011;6233;51.560;9.986;2023-03-20T04:16:37;29.20;;;18.37;;
12334;SDS011;6233;51.560;9.986;2023-03-20T04:19:38;27.77;;;18.67;;
12334;SDS011;6233;51.560;9.986;2023-03-20T04:22:40;29.43;;;18.73;;
12334;SDS011;6233;51.560;9.986;2023-03-20T04:25:42;28.53;;;17.83;;
12334;SDS011;6233;51.560;9.986;2023-03-20T04:28:44;23.73;;;16.80;;
12334;SDS011;6233;51.560;9.986;2023-03-20T04:31:46;27.93;;;18.07;;
12334;SDS011;6233;51.560;9.986;2023-03-20T04:34:47;28.10;;;17.93;;
12334;SDS011;6233;51.560;9.986;2023-03-20T04:37:49;24.50;;;16.87;;
12334;SDS011;6233;51.560;9.986;2023-03-20T04:40:51;29.27;;;18.23;;
12334;SDS011;6233;51.560;9.986;2023-03-20T04:43:53;28.07;;;18.33;;
12334;SDS011;6233;51.560;9.986;2023-03-20T04:46:54;30.50;;;18.77;;
12334;SDS011;6233;51.560;9.986;2023-03-20T04:49:56;31.97;;;19.40;;
12334;SDS011;6233;51.560;9.986;2023-03-20T04:52:58;32.50;;;20.13;;
12334;SDS011;6233;51.560;9.986;2023-03-20T04:56:00;32.67;;;20.47;;
12334;SDS011;6233;51.560;9.986;2023-03-20T04:59:02;35.10;;;19.83;;
12334;SDS011;6233;51.560;9.986;2023-03-20T05:02:04;35.13;;;21.00;;
12334;SDS011;6233;51.560;9.986;2023-03-20T05:05:06;31.97;;;20.03;;
12334;SDS011;6233;51.560;9.986;2023-03-20T05:08:08;37.17;;;23.10;;
12334;SDS011;6233;51.560;9.986;2023-03-20T05:11:10;34.87;;;22.60;;
12334;SDS011;6233;51.560;9.986;2023-03-20T05:14:12;32.67;;;19.03;;
12334;SDS011;6233;51.560;9.986;2023-03-20T05:17:14;29.30;;;19.33;;
12334;SDS011;6233;51.560;9.986;2023-03-20T05:20:15;34.30;;;19.50;;
12334;SDS011;6233;51.560;9.986;2023-03-20T05:23:17;33.10;;;20.10;;
12334;SDS011;6233;51.560;9.986;2023-03-20T05:26:19;34.73;;;19.77;;
12334;SDS011;6233;51.560;9.986;2023-03-20T05:29:21;38.43;;;21.77;;
12334;SDS011;6233;51.560;9.986;2023-03-20T05:32:23;30.10;;;20.10;;
12334;SDS011;6233;51.560;9.986;2023-03-20T05:35:24;35.23;;;20.67;;
12334;SDS011;6233;51.560;9.986;2023-03-20T05:38:26;31.03;;;19.87;;
12334;SDS011;6233;51.560;9.986;2023-03-20T05:41:28;34.03;;;20.17;;
12334;SDS011;6233;51.560;9.986;2023-03-20T05:44:29;33.40;;;20.90;;
12334;SDS011;6233;51.560;9.986;2023-03-20T05:47:31;36.17;;;21.87;;
12334;SDS011;6233;51.560;9.986;2023-03-20T05:50:33;32.23;;;20.77;;
12334;SDS011;6233;51.560;9.986;2023-03-20T05:53:35;34.97;;;21.93;;
12334;SDS011;6233;51.560;9.986;2023-03-20T05:56:36;30.63;;;20.00;;
12334;SDS011;6233;51.560;9.986;2023-03-20T05:59:38;31.83;;;20.10;;
12334;SDS011;6233;51.560;9.986;2023-03-20T06:02:40;36.20;;;21.27;;
12334;SDS011;6233;51.560;9.986;2023-03-20T06:05:42;35.00;;;20.57;;
12334;SDS011;6233;51.560;9.986;2023-03-20T06:08:44;31.07;;;19.57;;
12334;SDS011;6233;51.560;9.986;2023-03-20T06:11:46;33.70;;;21.50;;
12334;SDS011;6233;51.560;9.986;2023-03-20T06:14:49;32.70;;;19.93;;
12334;SDS011;6233;51.560;9.986;2023-03-20T06:17:50;34.17;;;20.53;;
12334;SDS011;6233;51.560;9.986;2023-03-20T06:20:56;32.77;;;20.00;;
12334;SDS011;6233;51.560;9.986;2023-03-20T06:23:58;30.60;;;18.83;;
12334;SDS011;6233;51.560;9.986;2023-03-20T06:27:00;32.37;;;21.23;;
12334;SDS011;6233;51.560;9.986;2023-03-20T06:30:02;35.43;;;20.27;;
12334;SDS011;6233;51.560;9.986;2023-03-20T06:33:07;35.67;;;21.50;;
12334;SDS011;6233;51.560;9.986;2023-03-20T06:36:09;32.03;;;20.20;;
12334;SDS011;6233;51.560;9.986;2023-03-20T06:39:11;39.87;;;22.47;;
12334;SDS011;6233;51.560;9.986;2023-03-20T06:42:13;36.33;;;21.83;;
12334;SDS011;6233;51.560;9.986;2023-03-20T06:45:16;37.23;;;22.00;;
12334;SDS011;6233;51.560;9.986;2023-03-20T06:48:18;37.43;;;21.60;;
12334;SDS011;6233;51.560;9.986;2023-03-20T06:51:22;37.77;;;21.17;;
12334;SDS011;6233;51.560;9.986;2023-03-20T06:54:24;34.70;;;21.00;;
12334;SDS011;6233;51.560;9.986;2023-03-20T06:57:26;29.70;;;19.27;;
12334;SDS011;6233;51.560;9.986;2023-03-20T07:00:28;38.20;;;21.60;;
12334;SDS011;6233;51.560;9.986;2023-03-20T07:03:30;37.27;;;21.70;;
12334;SDS011;6233;51.560;9.986;2023-03-20T07:06:31;35.97;;;21.40;;
12334;SDS011;6233;51.560;9.986;2023-03-20T07:09:34;34.10;;;20.87;;
12334;SDS011;6233;51.560;9.986;2023-03-20T07:12:37;35.17;;;21.10;;
12334;SDS011;6233;51.560;9.986;2023-03-20T07:15:38;37.73;;;21.27;;
12334;SDS011;6233;51.560;9.986;2023-03-20T07:22:41;37.53;;;21.83;;
12334;SDS011;6233;51.560;9.986;2023-03-20T07:25:43;37.03;;;21.03;;
12334;SDS011;6233;51.560;9.986;2023-03-20T07:28:47;44.03;;;23.20;;
12334;SDS011;6233;51.560;9.986;2023-03-20T07:31:49;41.87;;;22.67;;
12334;SDS011;6233;51.560;9.986;2023-03-20T07:34:51;42.33;;;22.47;;
12334;SDS011;6233;51.560;9.986;2023-03-20T07:37:53;41.17;;;22.53;;
12334;SDS011;6233;51.560;9.986;2023-03-20T07:40:57;43.47;;;22.63;;
12334;SDS011;6233;51.560;9.986;2023-03-20T07:43:59;40.33;;;23.80;;
12334;SDS011;6233;51.560;9.986;2023-03-20T07:47:00;39.57;;;22.30;;
12334;SDS011;6233;51.560;9.986;2023-03-20T07:50:02;37.90;;;21.93;;
12334;SDS011;6233;51.560;9.986;2023-03-20T07:53:07;40.90;;;22.30;;
12334;SDS011;6233;51.560;9.986;2023-03-20T07:56:09;39.77;;;22.00;;
12334;SDS011;6233;51.560;9.986;2023-03-20T07:59:11;44.87;;;24.03;;
12334;SDS011;6233;51.560;9.986;2023-03-20T08:05:22;36.57;;;21.60;;
12334;SDS011;6233;51.560;9.986;2023-03-20T08:08:24;43.20;;;22.00;;
12334;SDS011;6233;51.560;9.986;2023-03-20T08:11:26;39.40;;;20.93;;
12334;SDS011;6233;51.560;9.986;2023-03-20T08:14:28;48.97;;;22.77;;
12334;SDS011;6233;51.560;9.986;2023-03-20T08:17:29;44.37;;;23.77;;
12334;SDS011;6233;51.560;9.986;2023-03-20T08:20:31;44.60;;;23.47;;
12334;SDS011;6233;51.560;9.986;2023-03-20T08:23:33;44.23;;;24.93;;
12334;SDS011;6233;51.560;9.986;2023-03-20T08:26:35;42.37;;;23.17;;
12334;SDS011;6233;51.560;9.986;2023-03-20T08:29:37;46.30;;;24.17;;
12334;SDS011;6233;51.560;9.986;2023-03-20T08:32:39;39.93;;;22.70;;
12334;SDS011;6233;51.560;9.986;2023-03-20T08:35:41;41.87;;;23.50;;
12334;SDS011;6233;51.560;9.986;2023-03-20T08:39:02;44.40;;;25.00;;
12334;SDS011;6233;51.560;9.986;2023-03-20T08:42:04;45.60;;;25.90;;
12334;SDS011;6233;51.560;9.986;2023-03-20T08:45:07;43.47;;;25.17;;
12334;SDS011;6233;51.560;9.986;2023-03-20T08:48:09;51.00;;;28.00;;
12334;SDS011;6233;51.560;9.986;2023-03-20T08:51:11;46.40;;;26.03;;
12334;SDS011;6233;51.560;9.986;2023-03-20T08:54:13;49.13;;;26.53;;
12334;SDS011;6233;51.560;9.986;2023-03-20T08:57:16;48.03;;;26.30;;
12334;SDS011;6233;51.560;9.986;2023-03-20T09:00:18;42.73;;;26.20;;
12334;SDS011;6233;51.560;9.986;2023-03-20T09:03:20;50.17;;;28.10;;
12334;SDS011;6233;51.560;9.986;2023-03-20T09:06:22;47.80;;;26.37;;
12334;SDS011;6233;51.560;9.986;2023-03-20T09:09:24;52.13;;;28.67;;
12334;SDS011;6233;51.560;9.986;2023-03-20T09:12:29;48.00;;;26.80;;
12334;SDS011;6233;51.560;9.986;2023-03-20T09:15:33;45.93;;;26.60;;
12334;SDS011;6233;51.560;9.986;2023-03-20T09:18:35;47.10;;;28.00;;
12334;SDS011;6233;51.560;9.986;2023-03-20T09:21:38;47.33;;;27.33;;
12334;SDS011;6233;51.560;9.986;2023-03-20T09:24:40;50.73;;;28.80;;
12334;SDS011;6233;51.560;9.986;2023-03-20T09:27:42;48.07;;;27.50;;
12334;SDS011;6233;51.560;9.986;2023-03-20T09:30:44;53.23;;;30.20;;
12334;SDS011;6233;51.560;9.986;2023-03-20T09:33:46;48.93;;;30.57;;
12334;SDS011;6233;51.560;9.986;2023-03-20T09:36:48;52.87;;;29.77;;
12334;SDS011;6233;51.560;9.986;2023-03-20T09:39:50;54.07;;;30.50;;
12334;SDS011;6233;51.560;9.986;2023-03-20T09:52:19;51.10;;;29.10;;
12334;SDS011;6233;51.560;9.986;2023-03-20T09:55:29;53.57;;;29.70;;
12334;SDS011;6233;51.560;9.986;2023-03-20T09:58:35;48.23;;;28.67;;
12334;SDS011;6233;51.560;9.986;2023-03-20T10:04:50;48.63;;;27.70;;
12334;SDS011;6233;51.560;9.986;2023-03-20T10:07:55;52.87;;;28.43;;
12334;SDS011;6233;51.560;9.986;2023-03-20T10:17:39;56.47;;;29.87;;
12334;SDS011;6233;51.560;9.986;2023-03-20T10:21:14;52.23;;;28.00;;
12334;SDS011;6233;51.560;9.986;2023-03-20T10:27:39;48.17;;;28.10;;
12334;SDS011;6233;51.560;9.986;2023-03-20T10:30:55;51.00;;;29.03;;
12334;SDS011;6233;51.560;9.986;2023-03-20T10:41:17;46.10;;;27.20;;
12334;SDS011;6233;51.560;9.986;2023-03-20T10:44:27;49.00;;;27.77;;
12334;SDS011;6233;51.560;9.986;2023-03-20T10:47:34;49.50;;;27.93;;
12334;SDS011;6233;51.560;9.986;2023-03-20T10:50:46;41.47;;;26.07;;
12334;SDS011;6233;51.560;9.986;2023-03-20T10:53:55;37.87;;;22.77;;
12334;SDS011;6233;51.560;9.986;2023-03-20T10:57:03;36.67;;;20.60;;
12334;SDS011;6233;51.560;9.986;2023-03-20T11:00:11;32.13;;;19.47;;
12334;SDS011;6233;51.560;9.986;2023-03-20T11:03:21;32.20;;;18.97;;
12334;SDS011;6233;51.560;9.986;2023-03-20T11:06:32;28.30;;;17.17;;
12334;SDS011;6233;51.560;9.986;2023-03-20T11:09:38;27.07;;;16.00;;
12334;SDS011;6233;51.560;9.986;2023-03-20T11:12:41;24.73;;;15.83;;
12334;SDS011;6233;51.560;9.986;2023-03-20T11:15:45;26.43;;;16.70;;
12334;SDS011;6233;51.560;9.986;2023-03-20T11:18:48;25.30;;;16.07;;
12334;SDS011;6233;51.560;9.986;2023-03-20T11:21:52;23.50;;;16.03;;
12334;SDS011;6233;51.560;9.986;2023-03-20T11:24:56;23.83;;;15.37;;
12334;SDS011;6233;51.560;9.986;2023-03-20T11:28:22;22.13;;;15.77;;
12334;SDS011;6233;51.560;9.986;2023-03-20T11:31:37;21.23;;;14.73;;
12334;SDS011;6233;51.560;9.986;2023-03-20T11:34:40;23.87;;;15.77;;
12334;SDS011;6233;51.560;9.986;2023-03-20T11:37:44;23.43;;;15.43;;
12334;SDS011;6233;51.560;9.986;2023-03-20T11:40:48;20.53;;;14.60;;
12334;SDS011;6233;51.560;9.986;2023-03-20T11:43:54;20.80;;;13.83;;
12334;SDS011;6233;51.560;9.986;2023-03-20T11:54:20;17.83;;;13.50;;
12334;SDS011;6233;51.560;9.986;2023-03-20T12:00:38;18.50;;;13.80;;
12334;SDS011;6233;51.560;9.986;2023-03-20T12:07:15;16.10;;;12.20;;
12334;SDS011;6233;51.560;9.986;2023-03-20T12:10:33;18.00;;;13.47;;
12334;SDS011;6233;51.560;9.986;2023-03-20T12:13:39;17.57;;;13.70;;
12334;SDS011;6233;51.560;9.986;2023-03-20T12:16:43;17.43;;;13.17;;
12334;SDS011;6233;51.560;9.986;2023-03-20T12:23:42;17.97;;;13.77;;
12334;SDS011;6233;51.560;9.986;2023-03-20T12:30:35;16.57;;;12.63;;
12334;SDS011;6233;51.560;9.986;2023-03-20T12:37:11;16.63;;;12.83;;
12334;SDS011;6233;51.560;9.986;2023-03-20T12:40:18;17.70;;;12.83;;
12334;SDS011;6233;51.560;9.986;2023-03-20T12:43:29;15.13;;;12.30;;
12334;SDS011;6233;51.560;9.986;2023-03-20T13:13:35;13.43;;;11.07;;
12334;SDS011;6233;51.560;9.986;2023-03-20T13:20:35;14.00;;;10.60;;
12334;SDS011;6233;51.560;9.986;2023-03-20T13:30:42;13.30;;;10.73;;
12334;SDS011;6233;51.560;9.986;2023-03-20T13:33:58;16.37;;;12.33;;
12334;SDS011;6233;51.560;9.986;2023-03-20T13:40:31;13.30;;;10.27;;
12334;SDS011;6233;51.560;9.986;2023-03-20T13:43:51;15.73;;;11.00;;
12334;SDS011;6233;51.560;9.986;2023-03-20T13:46:58;14.70;;;10.93;;
12334;SDS011;6233;51.560;9.986;2023-03-20T13:57:22;13.37;;;10.70;;
12334;SDS011;6233;51.560;9.986;2023-03-20T14:03:55;14.87;;;10.63;;
12334;SDS011;6233;51.560;9.986;2023-03-20T14:06:58;15.70;;;11.53;;
12334;SDS011;6233;51.560;9.986;2023-03-20T14:13:20;14.80;;;11.07;;
12334;SDS011;6233;51.560;9.986;2023-03-20T14:16:25;19.20;;;11.67;;
12334;SDS011;6233;51.560;9.986;2023-03-20T14:19:28;13.10;;;10.60;;
12334;SDS011;6233;51.560;9.986;2023-03-20T14:22:34;14.30;;;10.47;;
12334;SDS011;6233;51.560;9.986;2023-03-20T14:25:39;14.70;;;11.50;;
12334;SDS011;6233;51.560;9.986;2023-03-20T14:28:45;15.97;;;11.47;;
12334;SDS011;6233;51.560;9.986;2023-03-20T14:35:20;20.13;;;11.97;;
12334;SDS011;6233;51.560;9.986;2023-03-20T14:38:30;14.20;;;11.00;;
12334;SDS011;6233;51.560;9.986;2023-03-20T14:41:38;14.83;;;10.80;;
12334;SDS011;6233;51.560;9.986;2023-03-20T14:48:43;13.07;;;10.77;;
12334;SDS011;6233;51.560;9.986;2023-03-20T14:51:49;13.47;;;11.27;;
12334;SDS011;6233;51.560;9.986;2023-03-20T14:55:12;14.43;;;11.07;;
12334;SDS011;6233;51.560;9.986;2023-03-20T15:01:44;17.67;;;12.97;;
12334;SDS011;6233;51.560;9.986;2023-03-20T15:04:48;11.00;;;9.67;;
12334;SDS011;6233;51.560;9.986;2023-03-20T15:07:55;13.77;;;10.33;;
12334;SDS011;6233;51.560;9.986;2023-03-20T15:10:59;10.50;;;9.40;;
12334;SDS011;6233;51.560;9.986;2023-03-20T15:14:07;13.37;;;9.93;;
12334;SDS011;6233;51.560;9.986;2023-03-20T15:17:21;10.80;;;8.53;;
12334;SDS011;6233;51.560;9.986;2023-03-20T15:20:27;10.37;;;8.60;;
12334;SDS011;6233;51.560;9.986;2023-03-20T15:23:29;8.63;;;7.73;;
12334;SDS011;6233;51.560;9.986;2023-03-20T15:26:42;8.43;;;7.53;;
12334;SDS011;6233;51.560;9.986;2023-03-20T15:29:45;9.63;;;8.20;;
12334;SDS011;6233;51.560;9.986;2023-03-20T15:32:52;8.10;;;6.77;;
12334;SDS011;6233;51.560;9.986;2023-03-20T15:35:55;7.87;;;6.80;;
12334;SDS011;6233;51.560;9.986;2023-03-20T15:39:00;10.50;;;8.20;;
12334;SDS011;6233;51.560;9.986;2023-03-20T15:42:08;7.37;;;6.60;;
12334;SDS011;6233;51.560;9.986;2023-03-20T15:45:20;7.83;;;6.40;;
12334;SDS011;6233;51.560;9.986;2023-03-20T15:48:26;7.20;;;5.93;;
12334;SDS011;6233;51.560;9.986;2023-03-20T15:51:28;7.23;;;6.30;;
12334;SDS011;6233;51.560;9.986;2023-03-20T15:54:30;8.53;;;6.50;;
12334;SDS011;6233;51.560;9.986;2023-03-20T15:57:34;7.70;;;6.30;;
12334;SDS011;6233;51.560;9.986;2023-03-20T16:00:41;8.00;;;6.50;;
12334;SDS011;6233;51.560;9.986;2023-03-20T16:03:45;8.07;;;6.53;;
12334;SDS011;6233;51.560;9.986;2023-03-20T16:06:49;7.70;;;6.27;;
12334;SDS011;6233;51.560;9.986;2023-03-20T16:10:00;7.33;;;6.57;;
12334;SDS011;6233;51.560;9.986;2023-03-20T16:17:24;6.87;;;6.17;;
12334;SDS011;6233;51.560;9.986;2023-03-20T16:20:34;8.17;;;7.00;;
12334;SDS011;6233;51.560;9.986;2023-03-20T16:23:40;7.70;;;6.80;;
12334;SDS011;6233;51.560;9.986;2023-03-20T16:26:47;8.60;;;7.80;;
12334;SDS011;6233;51.560;9.986;2023-03-20T16:29:51;8.37;;;7.00;;
12334;SDS011;6233;51.560;9.986;2023-03-20T16:32:57;14.30;;;8.60;;
12334;SDS011;6233;51.560;9.986;2023-03-20T16:36:00;10.73;;;8.97;;
12334;SDS011;6233;51.560;9.986;2023-03-20T16:42:17;8.97;;;8.07;;
12334;SDS011;6233;51.560;9.986;2023-03-20T16:45:28;12.43;;;8.33;;
12334;SDS011;6233;51.560;9.986;2023-03-20T16:48:32;10.80;;;8.73;;
12334;SDS011;6233;51.560;9.986;2023-03-20T16:51:36;8.87;;;7.97;;
12334;SDS011;6233;51.560;9.986;2023-03-20T16:54:38;9.40;;;8.37;;
12334;SDS011;6233;51.560;9.986;2023-03-20T16:57:40;9.50;;;8.50;;
12334;SDS011;6233;51.560;9.986;2023-03-20T17:00:44;9.33;;;8.33;;
12334;SDS011;6233;51.560;9.986;2023-03-20T17:03:53;9.00;;;8.17;;
12334;SDS011;6233;51.560;9.986;2023-03-20T17:06:57;13.37;;;8.77;;
12334;SDS011;6233;51.560;9.986;2023-03-20T17:10:18;10.60;;;9.50;;
12334;SDS011;6233;51.560;9.986;2023-03-20T17:13:21;12.93;;;9.37;;
12334;SDS011;6233;51.560;9.986;2023-03-20T17:16:23;13.30;;;9.63;;
12334;SDS011;6233;51.560;9.986;2023-03-20T17:19:25;12.50;;;9.53;;
12334;SDS011;6233;51.560;9.986;2023-03-20T17:22:27;12.90;;;10.33;;
12334;SDS011;6233;51.560;9.986;2023-03-20T17:25:30;13.47;;;10.87;;
12334;SDS011;6233;51.560;9.986;2023-03-20T17:28:33;11.10;;;9.90;;
12334;SDS011;6233;51.560;9.986;2023-03-20T17:31:36;12.87;;;11.57;;
12334;SDS011;6233;51.560;9.986;2023-03-20T17:34:38;16.30;;;10.80;;
12334;SDS011;6233;51.560;9.986;2023-03-20T17:37:40;13.20;;;10.23;;
12334;SDS011;6233;51.560;9.986;2023-03-20T17:40:42;17.17;;;12.53;;
12334;SDS011;6233;51.560;9.986;2023-03-20T17:43:44;14.93;;;10.90;;
12334;SDS011;6233;51.560;9.986;2023-03-20T17:46:47;12.40;;;10.93;;
12334;SDS011;6233;51.560;9.986;2023-03-20T17:49:58;16.03;;;12.63;;
12334;SDS011;6233;51.560;9.986;2023-03-20T17:57:36;16.07;;;12.37;;
12334;SDS011;6233;51.560;9.986;2023-03-20T18:00:39;13.90;;;12.40;;
12334;SDS011;6233;51.560;9.986;2023-03-20T18:03:41;13.77;;;12.37;;
12334;SDS011;6233;51.560;9.986;2023-03-20T18:06:42;14.07;;;12.30;;
12334;SDS011;6233;51.560;9.986;2023-03-20T18:09:44;15.77;;;12.40;;
12334;SDS011;6233;51.560;9.986;2023-03-20T18:12:47;14.60;;;12.00;;
12334;SDS011;6233;51.560;9.986;2023-03-20T18:15:50;14.87;;;11.93;;
12334;SDS011;6233;51.560;9.986;2023-03-20T18:18:53;14.33;;;12.07;;
12334;SDS011;6233;51.560;9.986;2023-03-20T18:21:55;13.73;;;12.30;;
12334;SDS011;6233;51.560;9.986;2023-03-20T18:24:58;13.83;;;12.03;;
12334;SDS011;6233;51.560;9.986;2023-03-20T18:28:00;13.97;;;12.37;;
12334;SDS011;6233;51.560;9.986;2023-03-20T18:31:03;13.67;;;11.03;;
12334;SDS011;6233;51.560;9.986;2023-03-20T18:34:05;13.53;;;11.80;;
12334;SDS011;6233;51.560;9.986;2023-03-20T18:37:11;14.90;;;12.27;;
12334;SDS011;6233;51.560;9.986;2023-03-20T18:40:18;15.03;;;11.90;;
12334;SDS011;6233;51.560;9.986;2023-03-20T18:43:21;15.83;;;11.80;;
12334;SDS011;6233;51.560;9.986;2023-03-20T18:46:26;13.20;;;11.43;;
12334;SDS011;6233;51.560;9.986;2023-03-20T18:49:27;11.67;;;10.37;;
12334;SDS011;6233;51.560;9.986;2023-03-20T18:52:29;14.60;;;10.63;;
12334;SDS011;6233;51.560;9.986;2023-03-20T18:55:32;14.50;;;11.23;;
12334;SDS011;6233;51.560;9.986;2023-03-20T18:58:34;10.93;;;9.57;;
12334;SDS011;6233;51.560;9.986;2023-03-20T19:01:36;9.20;;;8.20;;
12334;SDS011;6233;51.560;9.986;2023-03-20T19:04:38;7.43;;;6.60;;
12334;SDS011;6233;51.560;9.986;2023-03-20T19:07:40;8.73;;;6.13;;
12334;SDS011;6233;51.560;9.986;2023-03-20T19:10:42;8.00;;;6.53;;
12334;SDS011;6233;51.560;9.986;2023-03-20T19:13:45;8.53;;;6.73;;
12334;SDS011;6233;51.560;9.986;2023-03-20T19:16:49;11.67;;;7.87;;
12334;SDS011;6233;51.560;9.986;2023-03-20T19:19:51;6.27;;;5.07;;
12334;SDS011;6233;51.560;9.986;2023-03-20T19:22:53;5.60;;;4.77;;
12334;SDS011;6233;51.560;9.986;2023-03-20T19:29:48;5.83;;;4.70;;
12334;SDS011;6233;51.560;9.986;2023-03-20T19:32:50;6.67;;;4.90;;
12334;SDS011;6233;51.560;9.986;2023-03-20T19:35:51;6.33;;;4.83;;
12334;SDS011;6233;51.560;9.986;2023-03-20T19:39:05;5.17;;;4.67;;
12334;SDS011;6233;51.560;9.986;2023-03-20T19:42:08;6.50;;;4.83;;
12334;SDS011;6233;51.560;9.986;2023-03-20T19:45:31;5.70;;;4.83;;
12334;SDS011;6233;51.560;9.986;2023-03-20T19:48:34;5.73;;;4.80;;
12334;SDS011;6233;51.560;9.986;2023-03-20T19:51:51;5.30;;;4.80;;
12334;SDS011;6233;51.560;9.986;2023-03-20T19:54:53;5.70;;;5.10;;
12334;SDS011;6233;51.560;9.986;2023-03-20T19:58:04;6.97;;;4.97;;
12334;SDS011;6233;51.560;9.986;2023-03-20T20:01:06;6.30;;;5.00;;
12334;SDS011;6233;51.560;9.986;2023-03-20T20:04:15;6.07;;;5.13;;
12334;SDS011;6233;51.560;9.986;2023-03-20T20:07:17;5.20;;;4.33;;
12334;SDS011;6233;51.560;9.986;2023-03-20T20:10:40;4.73;;;3.73;;
12334;SDS011;6233;51.560;9.986;2023-03-20T20:13:47;4.50;;;3.67;;
12334;SDS011;6233;51.560;9.986;2023-03-20T20:17:07;4.70;;;3.90;;
12334;SDS011;6233;51.560;9.986;2023-03-20T20:20:09;5.57;;;4.23;;
12334;SDS011;6233;51.560;9.986;2023-03-20T20:23:13;7.77;;;4.00;;
12334;SDS011;6233;51.560;9.986;2023-03-20T20:26:16;4.27;;;3.87;;
12334;SDS011;6233;51.560;9.986;2023-03-20T20:29:19;4.77;;;3.90;;
12334;SDS011;6233;51.560;9.986;2023-03-20T20:32:22;5.17;;;3.60;;
12334;SDS011;6233;51.560;9.986;2023-03-20T20:35:29;4.63;;;4.10;;
12334;SDS011;6233;51.560;9.986;2023-03-20T20:38:52;5.20;;;3.87;;
12334;SDS011;6233;51.560;9.986;2023-03-20T20:41:54;5.77;;;4.13;;
12334;SDS011;6233;51.560;9.986;2023-03-20T20:44:56;5.13;;;4.03;;
12334;SDS011;6233;51.560;9.986;2023-03-20T20:47:58;5.80;;;4.20;;
12334;SDS011;6233;51.560;9.986;2023-03-20T20:51:00;9.60;;;5.53;;
12334;SDS011;6233;51.560;9.986;2023-03-20T20:54:02;4.50;;;3.77;;
12334;SDS011;6233;51.560;9.986;2023-03-20T20:57:04;5.13;;;4.20;;
12334;SDS011;6233;51.560;9.986;2023-03-20T21:00:07;8.27;;;5.17;;
12334;SDS011;6233;51.560;9.986;2023-03-20T21:03:09;6.73;;;5.37;;
12334;SDS011;6233;51.560;9.986;2023-03-20T21:06:11;7.77;;;5.07;;
12334;SDS011;6233;51.560;9.986;2023-03-20T21:12:52;8.30;;;5.10;;
12334;SDS011;6233;51.560;9.986;2023-03-20T21:15:59;7.07;;;5.33;;
12334;SDS011;6233;51.560;9.986;2023-03-20T21:19:01;6.13;;;5.33;;
12334;SDS011;6233;51.560;9.986;2023-03-20T21:22:03;5.90;;;5.03;;
12334;SDS011;6233;51.560;9.986;2023-03-20T21:25:08;5.87;;;5.27;;
12334;SDS011;6233;51.560;9.986;2023-03-20T21:28:15;6.67;;;5.70;;
12334;SDS011;6233;51.560;9.986;2023-03-20T21:31:24;7.03;;;5.67;;